sensor_id;sensor_type;location;lat;lon;timestamp;temperature;humidity
14993;DHT22;7592;51.088;13.732;2023-05-07T00:03:18;11.30;99.90
14993;DHT22;7592;51.088;13.732;2023-05-07T00:08:12;11.30;99.90
14993;DHT22;7592;51.088;13.732;2023-05-07T00:13:04;11.20;99.90
14993;DHT22;7592;51.088;13.732;2023-05-07T00:17:56;11.20;99.90
14993;DHT22;7592;51.088;13.732;2023-05-07T00:22:50;11.20;99.90
14993;DHT22;7592;51.088;13.732;2023-05-07T00:27:42;11.20;99.90
14993;DHT22;7592;51.088;13.732;2023-05-07T00:32:34;11.20;99.90
14993;DHT22;7592;51.088;13.732;2023-05-07T00:37:26;11.30;99.90
14993;DHT22;7592;51.088;13.732;2023-05-07T00:42:18;11.20;99.90
14993;DHT22;7592;51.088;13.732;2023-05-07T00:47:11;11.30;99.90
14993;DHT22;7592;51.088;13.732;2023-05-07T00:52:05;11.30;99.90
14993;DHT22;7592;51.088;13.732;2023-05-07T00:56:57;11.40;99.90
14993;DHT22;7592;51.088;13.732;2023-05-07T01:01:49;11.30;99.90
14993;DHT22;7592;51.088;13.732;2023-05-07T01:13:16;11.20;99.90
14993;DHT22;7592;51.088;13.732;2023-05-07T01:18:09;11.20;99.90
14993;DHT22;7592;51.088;13.732;2023-05-07T01:23:01;11.30;99.90
14993;DHT22;7592;51.088;13.732;2023-05-07T01:27:55;11.20;99.90
14993;DHT22;7592;51.088;13.732;2023-05-07T01:33:09;11.30;99.90
14993;DHT22;7592;51.088;13.732;2023-05-07T01:38:03;11.20;99.90
14993;DHT22;7592;51.088;13.732;2023-05-07T01:42:57;11.40;99.90
14993;DHT22;7592;51.088;13.732;2023-05-07T01:47:50;11.40;99.90
14993;DHT22;7592;51.088;13.732;2023-05-07T01:52:43;11.40;99.90
14993;DHT22;7592;51.088;13.732;2023-05-07T01:57:36;11.30;99.90
14993;DHT22;7592;51.088;13.732;2023-05-07T02:02:29;11.30;99.90
14993;DHT22;7592;51.088;13.732;2023-05-07T02:07:22;11.30;99.90
14993;DHT22;7592;51.088;13.732;2023-05-07T02:12:15;11.30;99.90
14993;DHT22;7592;51.088;13.732;2023-05-07T02:17:07;11.30;99.90
14993;DHT22;7592;51.088;13.732;2023-05-07T02:22:00;11.20;99.90
14993;DHT22;7592;51.088;13.732;2023-05-07T02:26:54;11.10;99.90
14993;DHT22;7592;51.088;13.732;2023-05-07T02:31:47;11.10;99.90
14993;DHT22;7592;51.088;13.732;2023-05-07T02:36:42;11.20;99.90
14993;DHT22;7592;51.088;13.732;2023-05-07T02:41:38;11.10;99.90
14993;DHT22;7592;51.088;13.732;2023-05-07T02:46:30;11.00;99.90
14993;DHT22;7592;51.088;13.732;2023-05-07T02:51:27;10.90;99.90
14993;DHT22;7592;51.088;13.732;2023-05-07T02:56:25;10.90;99.90
14993;DHT22;7592;51.088;13.732;2023-05-07T03:01:17;10.80;99.90
14993;DHT22;7592;51.088;13.732;2023-05-07T03:06:31;10.80;99.90
14993;DHT22;7592;51.088;13.732;2023-05-07T03:11:23;10.70;99.90
14993;DHT22;7592;51.088;13.732;2023-05-07T03:16:15;10.80;99.90
14993;DHT22;7592;51.088;13.732;2023-05-07T03:21:08;10.80;99.90
14993;DHT22;7592;51.088;13.732;2023-05-07T03:26:00;10.70;99.90
14993;DHT22;7592;51.088;13.732;2023-05-07T03:30:52;10.70;99.90
14993;DHT22;7592;51.088;13.732;2023-05-07T03:35:45;10.60;99.90
14993;DHT22;7592;51.088;13.732;2023-05-07T03:40:42;10.60;99.90
14993;DHT22;7592;51.088;13.732;2023-05-07T03:45:34;10.60;99.90
14993;DHT22;7592;51.088;13.732;2023-05-07T03:50:35;10.70;99.90
14993;DHT22;7592;51.088;13.732;2023-05-07T03:55:27;10.60;99.90
14993;DHT22;7592;51.088;13.732;2023-05-07T04:00:24;10.60;99.90
14993;DHT22;7592;51.088;13.732;2023-05-07T04:05:16;10.60;99.90
14993;DHT22;7592;51.088;13.732;2023-05-07T04:10:11;10.60;99.90
14993;DHT22;7592;51.088;13.732;2023-05-07T04:15:08;10.50;99.90
14993;DHT22;7592;51.088;13.732;2023-05-07T04:20:02;10.60;99.90
14993;DHT22;7592;51.088;13.732;2023-05-07T04:24:55;10.50;99.90
14993;DHT22;7592;51.088;13.732;2023-05-07T04:29:48;10.40;99.90
14993;DHT22;7592;51.088;13.732;2023-05-07T04:34:42;10.40;99.90
14993;DHT22;7592;51.088;13.732;2023-05-07T04:39:34;10.50;99.90
14993;DHT22;7592;51.088;13.732;2023-05-07T04:44:27;10.80;99.90
14993;DHT22;7592;51.088;13.732;2023-05-07T04:49:20;11.00;99.90
14993;DHT22;7592;51.088;13.732;2023-05-07T04:54:14;11.20;99.90
14993;DHT22;7592;51.088;13.732;2023-05-07T04:59:06;11.20;99.90
14993;DHT22;7592;51.088;13.732;2023-05-07T05:03:58;11.30;99.90
14993;DHT22;7592;51.088;13.732;2023-05-07T05:08:53;11.50;99.90
14993;DHT22;7592;51.088;13.732;2023-05-07T05:13:46;11.50;99.90
14993;DHT22;7592;51.088;13.732;2023-05-07T05:18:43;11.60;99.90
14993;DHT22;7592;51.088;13.732;2023-05-07T05:23:38;11.70;99.90
14993;DHT22;7592;51.088;13.732;2023-05-07T05:28:30;11.80;99.90
14993;DHT22;7592;51.088;13.732;2023-05-07T05:33:23;12.20;99.90
14993;DHT22;7592;51.088;13.732;2023-05-07T05:38:15;11.80;99.90
14993;DHT22;7592;51.088;13.732;2023-05-07T05:43:07;11.70;99.90
14993;DHT22;7592;51.088;13.732;2023-05-07T05:48:00;12.00;99.90
14993;DHT22;7592;51.088;13.732;2023-05-07T05:52:54;11.90;99.90
14993;DHT22;7592;51.088;13.732;2023-05-07T05:57:46;11.70;99.90
14993;DHT22;7592;51.088;13.732;2023-05-07T06:02:38;11.60;99.90
14993;DHT22;7592;51.088;13.732;2023-05-07T06:07:31;11.70;99.90
14993;DHT22;7592;51.088;13.732;2023-05-07T06:12:24;11.80;99.90
14993;DHT22;7592;51.088;13.732;2023-05-07T06:17:16;11.90;99.90
14993;DHT22;7592;51.088;13.732;2023-05-07T06:22:14;11.90;99.90
14993;DHT22;7592;51.088;13.732;2023-05-07T06:27:07;12.00;99.90
14993;DHT22;7592;51.088;13.732;2023-05-07T06:32:07;12.20;99.90
14993;DHT22;7592;51.088;13.732;2023-05-07T06:37:00;12.10;99.90
14993;DHT22;7592;51.088;13.732;2023-05-07T06:42:05;11.50;99.90
14993;DHT22;7592;51.088;13.732;2023-05-07T06:46:58;11.30;99.90
14993;DHT22;7592;51.088;13.732;2023-05-07T06:51:51;11.40;99.90
14993;DHT22;7592;51.088;13.732;2023-05-07T06:56:43;11.40;99.90
14993;DHT22;7592;51.088;13.732;2023-05-07T07:01:35;11.30;99.90
14993;DHT22;7592;51.088;13.732;2023-05-07T07:06:28;11.50;99.90
14993;DHT22;7592;51.088;13.732;2023-05-07T07:11:21;11.70;99.90
14993;DHT22;7592;51.088;13.732;2023-05-07T07:16:14;11.90;99.90
14993;DHT22;7592;51.088;13.732;2023-05-07T07:21:07;12.00;99.90
14993;DHT22;7592;51.088;13.732;2023-05-07T07:25:59;12.40;99.90
14993;DHT22;7592;51.088;13.732;2023-05-07T07:30:52;12.40;99.90
14993;DHT22;7592;51.088;13.732;2023-05-07T07:35:44;12.20;99.90
14993;DHT22;7592;51.088;13.732;2023-05-07T07:40:36;12.00;99.90
14993;DHT22;7592;51.088;13.732;2023-05-07T07:45:31;12.10;99.90
14993;DHT22;7592;51.088;13.732;2023-05-07T07:50:25;11.80;99.90
14993;DHT22;7592;51.088;13.732;2023-05-07T07:55:23;11.70;99.90
14993;DHT22;7592;51.088;13.732;2023-05-07T08:00:18;11.50;99.90
14993;DHT22;7592;51.088;13.732;2023-05-07T08:05:16;11.50;99.90
14993;DHT22;7592;51.088;13.732;2023-05-07T08:10:09;11.50;99.90
14993;DHT22;7592;51.088;13.732;2023-05-07T08:15:02;11.50;99.90
14993;DHT22;7592;51.088;13.732;2023-05-07T08:19:54;11.50;99.90
14993;DHT22;7592;51.088;13.732;2023-05-07T08:24:46;11.60;99.90
14993;DHT22;7592;51.088;13.732;2023-05-07T08:29:38;12.00;99.90
14993;DHT22;7592;51.088;13.732;2023-05-07T08:34:31;12.00;99.90
14993;DHT22;7592;51.088;13.732;2023-05-07T08:39:27;12.20;99.90
14993;DHT22;7592;51.088;13.732;2023-05-07T08:44:22;12.50;99.90
14993;DHT22;7592;51.088;13.732;2023-05-07T08:49:15;12.30;99.90
14993;DHT22;7592;51.088;13.732;2023-05-07T08:54:09;12.30;99.90
14993;DHT22;7592;51.088;13.732;2023-05-07T08:59:03;12.50;99.90
14993;DHT22;7592;51.088;13.732;2023-05-07T09:03:55;12.60;99.90
14993;DHT22;7592;51.088;13.732;2023-05-07T09:08:53;12.50;99.90
14993;DHT22;7592;51.088;13.732;2023-05-07T09:13:54;12.40;99.90
14993;DHT22;7592;51.088;13.732;2023-05-07T09:18:52;12.40;99.90
14993;DHT22;7592;51.088;13.732;2023-05-07T09:23:44;12.50;99.90
14993;DHT22;7592;51.088;13.732;2023-05-07T09:28:42;12.50;99.90
14993;DHT22;7592;51.088;13.732;2023-05-07T09:33:37;12.70;99.90
14993;DHT22;7592;51.088;13.732;2023-05-07T09:38:31;12.70;99.90
14993;DHT22;7592;51.088;13.732;2023-05-07T09:43:24;12.60;99.90
14993;DHT22;7592;51.088;13.732;2023-05-07T09:48:21;12.50;99.90
14993;DHT22;7592;51.088;13.732;2023-05-07T09:53:17;12.60;99.90
14993;DHT22;7592;51.088;13.732;2023-05-07T09:58:12;12.80;99.90
14993;DHT22;7592;51.088;13.732;2023-05-07T10:03:06;13.10;99.90
14993;DHT22;7592;51.088;13.732;2023-05-07T10:08:10;13.30;99.90
14993;DHT22;7592;51.088;13.732;2023-05-07T10:13:06;12.90;99.90
14993;DHT22;7592;51.088;13.732;2023-05-07T10:18:06;13.10;99.90
14993;DHT22;7592;51.088;13.732;2023-05-07T10:23:03;13.10;99.90
14993;DHT22;7592;51.088;13.732;2023-05-07T10:28:06;13.70;99.90
14993;DHT22;7592;51.088;13.732;2023-05-07T10:33:05;13.40;99.90
14993;DHT22;7592;51.088;13.732;2023-05-07T10:38:04;13.20;99.90
14993;DHT22;7592;51.088;13.732;2023-05-07T10:43:04;13.50;99.90
14993;DHT22;7592;51.088;13.732;2023-05-07T10:48:15;14.00;99.90
14993;DHT22;7592;51.088;13.732;2023-05-07T10:53:30;14.80;99.90
14993;DHT22;7592;51.088;13.732;2023-05-07T10:58:45;14.80;99.90
14993;DHT22;7592;51.088;13.732;2023-05-07T11:04:13;15.20;99.90
14993;DHT22;7592;51.088;13.732;2023-05-07T11:09:12;15.10;99.90
14993;DHT22;7592;51.088;13.732;2023-05-07T11:19:51;15.50;99.90
14993;DHT22;7592;51.088;13.732;2023-05-07T11:25:09;15.80;99.90
14993;DHT22;7592;51.088;13.732;2023-05-07T11:30:03;16.30;99.90
14993;DHT22;7592;51.088;13.732;2023-05-07T11:34:58;15.50;99.90
14993;DHT22;7592;51.088;13.732;2023-05-07T11:39:51;15.70;99.90
14993;DHT22;7592;51.088;13.732;2023-05-07T11:44:50;15.80;99.90
14993;DHT22;7592;51.088;13.732;2023-05-07T11:49:42;14.90;99.90
14993;DHT22;7592;51.088;13.732;2023-05-07T11:54:37;14.90;99.90
14993;DHT22;7592;51.088;13.732;2023-05-07T11:59:29;15.20;99.90
14993;DHT22;7592;51.088;13.732;2023-05-07T12:04:21;15.20;99.90
14993;DHT22;7592;51.088;13.732;2023-05-07T12:09:13;15.00;99.90
14993;DHT22;7592;51.088;13.732;2023-05-07T12:14:06;14.80;99.90
14993;DHT22;7592;51.088;13.732;2023-05-07T12:19:01;14.80;99.90
14993;DHT22;7592;51.088;13.732;2023-05-07T12:23:53;15.10;99.90
14993;DHT22;7592;51.088;13.732;2023-05-07T12:28:46;15.30;99.90
14993;DHT22;7592;51.088;13.732;2023-05-07T12:33:38;15.40;99.90
14993;DHT22;7592;51.088;13.732;2023-05-07T12:38:35;15.50;99.90
14993;DHT22;7592;51.088;13.732;2023-05-07T12:43:29;15.40;99.90
14993;DHT22;7592;51.088;13.732;2023-05-07T12:48:21;15.30;99.90
14993;DHT22;7592;51.088;13.732;2023-05-07T12:53:15;15.70;99.90
14993;DHT22;7592;51.088;13.732;2023-05-07T12:58:07;16.10;99.90
14993;DHT22;7592;51.088;13.732;2023-05-07T13:03:00;16.60;99.90
14993;DHT22;7592;51.088;13.732;2023-05-07T13:07:55;16.50;99.90
14993;DHT22;7592;51.088;13.732;2023-05-07T13:12:47;17.10;99.90
14993;DHT22;7592;51.088;13.732;2023-05-07T13:17:39;17.40;99.90
14993;DHT22;7592;51.088;13.732;2023-05-07T13:22:32;16.90;99.90
14993;DHT22;7592;51.088;13.732;2023-05-07T13:27:24;16.60;99.90
14993;DHT22;7592;51.088;13.732;2023-05-07T13:32:17;16.10;99.90
14993;DHT22;7592;51.088;13.732;2023-05-07T13:37:10;16.30;99.90
14993;DHT22;7592;51.088;13.732;2023-05-07T13:42:03;16.10;99.90
14993;DHT22;7592;51.088;13.732;2023-05-07T13:46:55;16.00;99.90
14993;DHT22;7592;51.088;13.732;2023-05-07T13:51:48;16.50;99.90
14993;DHT22;7592;51.088;13.732;2023-05-07T13:56:40;16.20;99.90
14993;DHT22;7592;51.088;13.732;2023-05-07T14:01:32;16.10;99.90
14993;DHT22;7592;51.088;13.732;2023-05-07T14:06:25;15.90;99.90
14993;DHT22;7592;51.088;13.732;2023-05-07T14:11:17;15.90;99.90
14993;DHT22;7592;51.088;13.732;2023-05-07T14:16:09;15.90;99.90
14993;DHT22;7592;51.088;13.732;2023-05-07T14:21:01;15.90;99.90
14993;DHT22;7592;51.088;13.732;2023-05-07T14:25:54;15.80;99.90
14993;DHT22;7592;51.088;13.732;2023-05-07T14:30:46;15.60;99.90
14993;DHT22;7592;51.088;13.732;2023-05-07T14:35:39;15.30;99.90
14993;DHT22;7592;51.088;13.732;2023-05-07T14:40:31;15.10;99.90
14993;DHT22;7592;51.088;13.732;2023-05-07T14:45:23;15.00;99.90
14993;DHT22;7592;51.088;13.732;2023-05-07T14:50:15;15.20;99.90
14993;DHT22;7592;51.088;13.732;2023-05-07T14:55:08;15.00;99.90
14993;DHT22;7592;51.088;13.732;2023-05-07T15:00:03;14.60;99.90
14993;DHT22;7592;51.088;13.732;2023-05-07T15:04:58;14.40;99.90
14993;DHT22;7592;51.088;13.732;2023-05-07T15:09:51;14.60;99.90
14993;DHT22;7592;51.088;13.732;2023-05-07T15:14:43;14.70;99.90
14993;DHT22;7592;51.088;13.732;2023-05-07T15:19:36;14.70;99.90
14993;DHT22;7592;51.088;13.732;2023-05-07T15:24:29;14.60;99.90
14993;DHT22;7592;51.088;13.732;2023-05-07T15:29:21;14.70;99.90
14993;DHT22;7592;51.088;13.732;2023-05-07T15:34:13;14.60;99.90
14993;DHT22;7592;51.088;13.732;2023-05-07T15:39:08;14.50;99.90
14993;DHT22;7592;51.088;13.732;2023-05-07T15:44:01;14.60;99.90
14993;DHT22;7592;51.088;13.732;2023-05-07T15:48:53;14.50;99.90
14993;DHT22;7592;51.088;13.732;2023-05-07T15:53:46;14.30;99.90
14993;DHT22;7592;51.088;13.732;2023-05-07T15:58:38;13.90;99.90
14993;DHT22;7592;51.088;13.732;2023-05-07T16:03:30;13.90;99.90
14993;DHT22;7592;51.088;13.732;2023-05-07T16:08:23;14.10;99.90
14993;DHT22;7592;51.088;13.732;2023-05-07T16:13:15;14.20;99.90
14993;DHT22;7592;51.088;13.732;2023-05-07T16:18:11;13.90;99.90
14993;DHT22;7592;51.088;13.732;2023-05-07T16:23:06;13.80;99.90
14993;DHT22;7592;51.088;13.732;2023-05-07T16:27:58;13.80;99.90
14993;DHT22;7592;51.088;13.732;2023-05-07T16:32:50;14.00;99.90
14993;DHT22;7592;51.088;13.732;2023-05-07T16:37:43;13.30;99.90
14993;DHT22;7592;51.088;13.732;2023-05-07T16:42:36;12.90;99.90
14993;DHT22;7592;51.088;13.732;2023-05-07T16:47:28;12.90;99.90
14993;DHT22;7592;51.088;13.732;2023-05-07T16:52:21;12.90;99.90
14993;DHT22;7592;51.088;13.732;2023-05-07T16:57:13;12.70;99.90
14993;DHT22;7592;51.088;13.732;2023-05-07T17:02:05;12.50;99.90
14993;DHT22;7592;51.088;13.732;2023-05-07T17:06:59;12.40;99.90
14993;DHT22;7592;51.088;13.732;2023-05-07T17:11:51;12.50;99.90
14993;DHT22;7592;51.088;13.732;2023-05-07T17:16:43;12.40;99.90
14993;DHT22;7592;51.088;13.732;2023-05-07T17:21:35;12.10;99.90
14993;DHT22;7592;51.088;13.732;2023-05-07T17:26:28;12.00;99.90
14993;DHT22;7592;51.088;13.732;2023-05-07T17:31:22;11.90;99.90
14993;DHT22;7592;51.088;13.732;2023-05-07T17:36:15;11.80;99.90
14993;DHT22;7592;51.088;13.732;2023-05-07T17:41:07;11.70;99.90
14993;DHT22;7592;51.088;13.732;2023-05-07T17:45:59;11.70;99.90
14993;DHT22;7592;51.088;13.732;2023-05-07T17:50:51;11.60;99.90
14993;DHT22;7592;51.088;13.732;2023-05-07T17:55:43;11.50;99.90
14993;DHT22;7592;51.088;13.732;2023-05-07T18:00:36;11.40;99.90
14993;DHT22;7592;51.088;13.732;2023-05-07T18:05:29;11.30;99.90
14993;DHT22;7592;51.088;13.732;2023-05-07T18:10:21;11.20;99.90
14993;DHT22;7592;51.088;13.732;2023-05-07T18:15:14;11.10;99.90
14993;DHT22;7592;51.088;13.732;2023-05-07T18:20:06;11.10;99.90
14993;DHT22;7592;51.088;13.732;2023-05-07T18:25:02;11.00;99.90
14993;DHT22;7592;51.088;13.732;2023-05-07T18:29:54;10.80;99.90
14993;DHT22;7592;51.088;13.732;2023-05-07T18:34:47;10.70;99.90
14993;DHT22;7592;51.088;13.732;2023-05-07T18:39:39;10.70;99.90
14993;DHT22;7592;51.088;13.732;2023-05-07T18:44:31;10.50;99.90
14993;DHT22;7592;51.088;13.732;2023-05-07T18:49:24;10.40;99.90
14993;DHT22;7592;51.088;13.732;2023-05-07T18:54:16;10.40;99.90
14993;DHT22;7592;51.088;13.732;2023-05-07T18:59:08;10.30;99.90
14993;DHT22;7592;51.088;13.732;2023-05-07T19:04:00;10.20;99.90
14993;DHT22;7592;51.088;13.732;2023-05-07T19:08:52;10.30;99.90
14993;DHT22;7592;51.088;13.732;2023-05-07T19:13:44;10.20;99.90
14993;DHT22;7592;51.088;13.732;2023-05-07T19:18:37;10.00;99.90
14993;DHT22;7592;51.088;13.732;2023-05-07T19:23:29;10.00;99.90
14993;DHT22;7592;51.088;13.732;2023-05-07T19:28:21;9.90;99.90
14993;DHT22;7592;51.088;13.732;2023-05-07T19:33:13;9.70;99.90
14993;DHT22;7592;51.088;13.732;2023-05-07T19:38:05;9.50;99.90
14993;DHT22;7592;51.088;13.732;2023-05-07T19:42:59;9.40;99.90
14993;DHT22;7592;51.088;13.732;2023-05-07T19:47:51;9.30;99.90
14993;DHT22;7592;51.088;13.732;2023-05-07T19:52:43;9.20;99.90
14993;DHT22;7592;51.088;13.732;2023-05-07T19:57:35;9.40;99.90
14993;DHT22;7592;51.088;13.732;2023-05-07T20:02:27;9.20;99.90
14993;DHT22;7592;51.088;13.732;2023-05-07T20:07:19;9.20;99.90
14993;DHT22;7592;51.088;13.732;2023-05-07T20:12:11;9.20;99.90
14993;DHT22;7592;51.088;13.732;2023-05-07T20:17:03;9.10;99.90
14993;DHT22;7592;51.088;13.732;2023-05-07T20:21:56;9.20;99.90
14993;DHT22;7592;51.088;13.732;2023-05-07T20:26:48;9.30;99.90
14993;DHT22;7592;51.088;13.732;2023-05-07T20:31:40;9.20;99.90
14993;DHT22;7592;51.088;13.732;2023-05-07T20:36:32;9.10;99.90
14993;DHT22;7592;51.088;13.732;2023-05-07T20:41:24;8.90;99.90
14993;DHT22;7592;51.088;13.732;2023-05-07T20:46:16;8.90;99.90
14993;DHT22;7592;51.088;13.732;2023-05-07T20:51:11;8.90;99.90
14993;DHT22;7592;51.088;13.732;2023-05-07T20:56:07;8.80;99.90
14993;DHT22;7592;51.088;13.732;2023-05-07T21:00:59;8.90;99.90
14993;DHT22;7592;51.088;13.732;2023-05-07T21:05:53;9.10;99.90
14993;DHT22;7592;51.088;13.732;2023-05-07T21:10:46;9.10;99.90
14993;DHT22;7592;51.088;13.732;2023-05-07T21:15:40;9.20;99.90
14993;DHT22;7592;51.088;13.732;2023-05-07T21:20:34;9.10;99.90
14993;DHT22;7592;51.088;13.732;2023-05-07T21:25:27;9.10;99.90
14993;DHT22;7592;51.088;13.732;2023-05-07T21:30:19;9.10;99.90
14993;DHT22;7592;51.088;13.732;2023-05-07T21:35:11;9.10;99.90
14993;DHT22;7592;51.088;13.732;2023-05-07T21:40:04;9.00;99.90
14993;DHT22;7592;51.088;13.732;2023-05-07T21:44:58;8.90;99.90
14993;DHT22;7592;51.088;13.732;2023-05-07T21:49:51;8.80;99.90
14993;DHT22;7592;51.088;13.732;2023-05-07T21:54:43;8.70;99.90
14993;DHT22;7592;51.088;13.732;2023-05-07T21:59:36;8.60;99.90
14993;DHT22;7592;51.088;13.732;2023-05-07T22:04:28;8.40;99.90
14993;DHT22;7592;51.088;13.732;2023-05-07T22:09:20;8.30;99.90
14993;DHT22;7592;51.088;13.732;2023-05-07T22:14:15;8.20;99.90
14993;DHT22;7592;51.088;13.732;2023-05-07T22:19:09;8.20;99.90
14993;DHT22;7592;51.088;13.732;2023-05-07T22:24:01;8.10;99.90
14993;DHT22;7592;51.088;13.732;2023-05-07T22:28:54;8.10;99.90
14993;DHT22;7592;51.088;13.732;2023-05-07T22:33:46;8.10;99.90
14993;DHT22;7592;51.088;13.732;2023-05-07T22:38:38;8.20;99.90
14993;DHT22;7592;51.088;13.732;2023-05-07T22:43:30;8.20;99.90
14993;DHT22;7592;51.088;13.732;2023-05-07T22:48:22;8.40;99.90
14993;DHT22;7592;51.088;13.732;2023-05-07T22:53:14;8.50;99.90
14993;DHT22;7592;51.088;13.732;2023-05-07T22:58:06;8.50;99.90
14993;DHT22;7592;51.088;13.732;2023-05-07T23:02:58;8.40;99.90
14993;DHT22;7592;51.088;13.732;2023-05-07T23:07:52;8.30;99.90
14993;DHT22;7592;51.088;13.732;2023-05-07T23:12:44;8.20;99.90
14993;DHT22;7592;51.088;13.732;2023-05-07T23:17:40;8.10;99.90
14993;DHT22;7592;51.088;13.732;2023-05-07T23:22:32;8.10;99.90
14993;DHT22;7592;51.088;13.732;2023-05-07T23:27:24;8.20;99.90
14993;DHT22;7592;51.088;13.732;2023-05-07T23:32:16;8.40;99.90
14993;DHT22;7592;51.088;13.732;2023-05-07T23:37:11;8.50;99.90
14993;DHT22;7592;51.088;13.732;2023-05-07T23:42:03;8.60;99.90
14993;DHT22;7592;51.088;13.732;2023-05-07T23:46:55;8.70;99.90
14993;DHT22;7592;51.088;13.732;2023-05-07T23:51:48;8.40;99.90
14993;DHT22;7592;51.088;13.732;2023-05-07T23:56:40;8.20;99.90
